createdAt,value
2017-05-16T00:00:07.794Z,1026.90
2017-05-16T00:01:08.441Z,1026.82
2017-05-16T00:02:09.080Z,1026.82
2017-05-16T00:03:09.721Z,1026.76
2017-05-16T00:04:10.767Z,1026.71
2017-05-16T00:05:11.403Z,1026.67
2017-05-16T00:06:12.045Z,1026.66
2017-05-16T00:07:12.682Z,1026.68
2017-05-16T00:08:13.326Z,1026.68
2017-05-16T00:09:13.962Z,1026.65
2017-05-16T00:10:14.605Z,1026.62
2017-05-16T00:11:15.246Z,1026.64
2017-05-16T00:12:16.087Z,1026.66
2017-05-16T00:13:16.732Z,1026.58
2017-05-16T00:14:17.372Z,1026.59
2017-05-16T00:15:18.015Z,1026.59
2017-05-16T00:16:18.655Z,1026.55
2017-05-16T00:17:19.298Z,1026.50
2017-05-16T00:18:19.940Z,1026.50
2017-05-16T00:19:20.577Z,1026.49
2017-05-16T00:20:21.519Z,1026.54
2017-05-16T00:21:22.123Z,1026.51
2017-05-16T00:22:22.765Z,1026.60
2017-05-16T00:23:23.406Z,1026.59
2017-05-16T00:24:24.050Z,1026.54
2017-05-16T00:25:24.692Z,1026.52
2017-05-16T00:26:25.334Z,1026.58
2017-05-16T00:27:25.978Z,1026.56
2017-05-16T00:28:26.820Z,1026.61
2017-05-16T00:29:27.463Z,1026.62
2017-05-16T00:30:28.106Z,1026.56
2017-05-16T00:31:28.747Z,1026.56
2017-05-16T00:32:29.391Z,1026.56
2017-05-16T00:33:30.035Z,1026.60
2017-05-16T00:34:30.674Z,1026.58
2017-05-16T00:35:31.315Z,1026.50
2017-05-16T00:36:31.956Z,1026.58
2017-05-16T00:37:32.797Z,1026.53
2017-05-16T00:38:33.440Z,1026.52
2017-05-16T00:39:34.076Z,1026.45
2017-05-16T00:40:34.713Z,1026.50
2017-05-16T00:41:35.351Z,1026.43
2017-05-16T00:42:35.989Z,1026.50
2017-05-16T00:43:36.631Z,1026.51
2017-05-16T00:44:37.274Z,1026.42
2017-05-16T00:45:38.064Z,1026.47
2017-05-16T00:46:38.702Z,1026.49
2017-05-16T00:47:39.336Z,1026.51
2017-05-16T00:48:39.976Z,1026.40
2017-05-16T00:49:40.621Z,1026.40
2017-05-16T00:50:41.269Z,1026.44
2017-05-16T00:51:41.908Z,1026.42
2017-05-16T00:52:42.549Z,1026.40
2017-05-16T00:53:43.385Z,1026.34
2017-05-16T00:54:44.028Z,1026.43
2017-05-16T00:55:44.673Z,1026.39
2017-05-16T00:56:45.315Z,1026.35
2017-05-16T00:57:45.950Z,1026.38
2017-05-16T00:58:46.592Z,1026.30
2017-05-16T00:59:47.232Z,1026.32
2017-05-16T01:00:47.876Z,1026.23
2017-05-16T01:01:48.718Z,1026.28
2017-05-16T01:02:49.362Z,1026.31
2017-05-16T01:03:50.001Z,1026.24
2017-05-16T01:04:50.642Z,1026.28
2017-05-16T01:05:51.286Z,1026.25
2017-05-16T01:06:51.928Z,1026.27
2017-05-16T01:07:52.572Z,1026.21
2017-05-16T01:08:53.212Z,1026.20
2017-05-16T01:09:53.846Z,1026.17
2017-05-16T01:10:54.687Z,1026.22
2017-05-16T01:11:55.327Z,1026.23
2017-05-16T01:12:55.966Z,1026.18
2017-05-16T01:13:56.607Z,1026.18
2017-05-16T01:14:57.247Z,1026.25
2017-05-16T01:15:57.887Z,1026.28
2017-05-16T01:16:58.533Z,1026.22
2017-05-16T01:17:59.173Z,1026.18
2017-05-16T01:19:00.013Z,1026.23
2017-05-16T01:20:00.651Z,1026.15
2017-05-16T01:21:01.294Z,1026.17
2017-05-16T01:22:01.936Z,1026.11
2017-05-16T01:23:02.572Z,1026.17
2017-05-16T01:24:03.214Z,1026.17
2017-05-16T01:25:03.854Z,1026.14
2017-05-16T01:26:04.496Z,1026.05
2017-05-16T01:27:05.289Z,1026.05
2017-05-16T01:28:05.932Z,1026.02
2017-05-16T01:29:06.573Z,1025.96
2017-05-16T01:30:07.214Z,1026.02
2017-05-16T01:31:07.857Z,1025.95
2017-05-16T01:32:08.497Z,1025.93
2017-05-16T01:33:09.136Z,1025.90
2017-05-16T01:34:09.782Z,1025.94
2017-05-16T01:35:10.621Z,1025.85
2017-05-16T01:36:11.263Z,1025.97
2017-05-16T01:37:11.906Z,1025.87
2017-05-16T01:38:12.546Z,1025.99
2017-05-16T01:39:13.184Z,1026.00
2017-05-16T01:40:13.825Z,1026.04
2017-05-16T01:41:14.469Z,1025.99
2017-05-16T01:42:15.110Z,1026.00
2017-05-16T01:43:15.955Z,1025.95
2017-05-16T01:44:16.598Z,1025.96
2017-05-16T01:45:17.238Z,1025.92
2017-05-16T01:46:17.879Z,1026.02
2017-05-16T01:47:18.568Z,1025.92
2017-05-16T01:48:19.175Z,1025.96
2017-05-16T01:49:19.819Z,1025.89
2017-05-16T01:50:20.461Z,1025.89
2017-05-16T01:51:21.102Z,1025.95
2017-05-16T01:52:21.942Z,1025.93
2017-05-16T01:53:22.584Z,1025.90
2017-05-16T01:54:23.229Z,1025.88
2017-05-16T01:55:23.870Z,1025.93
2017-05-16T01:56:26.957Z,1025.88
2017-05-16T01:57:27.597Z,1025.87
2017-05-16T01:58:28.235Z,1025.88
2017-05-16T01:59:28.877Z,1025.88
2017-05-16T02:00:29.662Z,1025.86
2017-05-16T02:01:30.305Z,1025.90
2017-05-16T02:02:30.945Z,1025.92
2017-05-16T02:03:31.587Z,1025.98
2017-05-16T02:04:32.227Z,1025.99
2017-05-16T02:05:32.864Z,1026.02
2017-05-16T02:06:33.509Z,1026.04
2017-05-16T02:07:34.152Z,1026.02
2017-05-16T02:08:34.994Z,1026.06
2017-05-16T02:09:35.634Z,1026.05
2017-05-16T02:10:36.277Z,1026.10
2017-05-16T02:11:36.914Z,1026.12
2017-05-16T02:12:37.555Z,1026.13
2017-05-16T02:13:38.195Z,1026.10
2017-05-16T02:14:38.834Z,1026.15
2017-05-16T02:15:39.475Z,1026.12
2017-05-16T02:16:40.320Z,1026.11
2017-05-16T02:17:41.280Z,1026.10
2017-05-16T02:18:41.924Z,1026.08
2017-05-16T02:19:42.563Z,1026.02
2017-05-16T02:20:43.200Z,1025.97
2017-05-16T02:21:43.841Z,1025.98
2017-05-16T02:22:44.484Z,1025.96
2017-05-16T02:23:45.126Z,1025.96
2017-05-16T02:24:45.962Z,1026.08
2017-05-16T02:25:46.604Z,1026.04
2017-05-16T02:26:47.244Z,1025.97
2017-05-16T02:27:47.882Z,1026.04
2017-05-16T02:28:48.522Z,1026.05
2017-05-16T02:29:49.164Z,1025.99
2017-05-16T02:30:49.805Z,1025.96
2017-05-16T02:31:50.446Z,1025.89
2017-05-16T02:32:51.089Z,1025.89
2017-05-16T02:33:51.880Z,1025.89
2017-05-16T02:34:52.518Z,1025.86
2017-05-16T02:35:53.158Z,1025.75
2017-05-16T02:36:53.795Z,1025.80
2017-05-16T02:37:54.436Z,1025.80
2017-05-16T02:38:55.076Z,1025.74
2017-05-16T02:39:55.717Z,1025.73
2017-05-16T02:40:56.355Z,1025.68
2017-05-16T02:41:57.198Z,1025.72
2017-05-16T02:42:57.842Z,1025.69
2017-05-16T02:43:58.481Z,1025.67
2017-05-16T02:44:59.123Z,1025.70
2017-05-16T02:45:59.765Z,1025.67
2017-05-16T02:47:00.403Z,1025.70
2017-05-16T02:48:01.044Z,1025.72
2017-05-16T02:49:01.678Z,1025.72
2017-05-16T02:50:02.471Z,1025.72
2017-05-16T02:51:03.432Z,1025.71
2017-05-16T02:52:04.072Z,1025.76
2017-05-16T02:53:04.770Z,1025.67
2017-05-16T02:54:05.381Z,1025.74
2017-05-16T02:55:06.018Z,1025.70
2017-05-16T02:56:06.662Z,1025.79
2017-05-16T02:57:07.303Z,1025.70
2017-05-16T02:58:08.143Z,1025.72
2017-05-16T02:59:08.785Z,1025.67
2017-05-16T03:00:09.426Z,1025.63
2017-05-16T03:01:10.065Z,1025.70
2017-05-16T03:02:10.704Z,1025.73
2017-05-16T03:03:11.345Z,1025.73
2017-05-16T03:04:11.988Z,1025.72
2017-05-16T03:05:12.628Z,1025.70
2017-05-16T03:06:13.269Z,1025.70
2017-05-16T03:07:14.115Z,1025.70
2017-05-16T03:08:14.756Z,1025.72
2017-05-16T03:09:15.395Z,1025.75
2017-05-16T03:10:16.036Z,1025.66
2017-05-16T03:11:16.677Z,1025.77
2017-05-16T03:12:17.325Z,1025.74
2017-05-16T03:13:18.288Z,1025.69
2017-05-16T03:14:18.927Z,1025.70
2017-05-16T03:15:19.718Z,1025.72
2017-05-16T03:16:20.362Z,1025.71
2017-05-16T03:17:21.003Z,1025.69
2017-05-16T03:18:21.645Z,1025.67
2017-05-16T03:19:22.289Z,1025.65
2017-05-16T03:20:22.925Z,1025.72
2017-05-16T03:21:23.568Z,1025.73
2017-05-16T03:22:24.212Z,1025.67
2017-05-16T03:23:25.061Z,1025.66
2017-05-16T03:24:25.694Z,1025.61
2017-05-16T03:25:26.337Z,1025.66
2017-05-16T03:26:26.974Z,1025.59
2017-05-16T03:27:27.616Z,1025.66
2017-05-16T03:28:28.250Z,1025.63
2017-05-16T03:29:28.892Z,1025.59
2017-05-16T03:30:29.534Z,1025.61
2017-05-16T03:31:30.377Z,1025.65
2017-05-16T03:32:31.019Z,1025.64
2017-05-16T03:33:31.660Z,1025.71
2017-05-16T03:34:32.298Z,1025.70
2017-05-16T03:35:32.937Z,1025.59
2017-05-16T03:36:33.577Z,1025.69
2017-05-16T03:37:34.218Z,1025.65
2017-05-16T03:38:34.860Z,1025.66
2017-05-16T03:39:35.695Z,1025.71
2017-05-16T03:40:36.339Z,1025.62
2017-05-16T03:41:36.979Z,1025.68
2017-05-16T03:42:37.623Z,1025.61
2017-05-16T03:43:38.258Z,1025.65
2017-05-16T03:44:38.898Z,1025.59
2017-05-16T03:45:39.539Z,1025.68
2017-05-16T03:46:40.179Z,1025.64
2017-05-16T03:47:40.820Z,1025.64
2017-05-16T03:48:41.664Z,1025.64
2017-05-16T03:49:42.307Z,1025.63
2017-05-16T03:50:42.947Z,1025.63
2017-05-16T03:51:43.587Z,1025.61
2017-05-16T03:52:44.229Z,1025.60
2017-05-16T03:53:44.869Z,1025.61
2017-05-16T03:54:45.510Z,1025.56
2017-05-16T03:55:46.155Z,1025.57
2017-05-16T03:56:46.997Z,1025.56
2017-05-16T03:57:47.640Z,1025.51
2017-05-16T03:58:48.286Z,1025.53
2017-05-16T03:59:48.921Z,1025.53
2017-05-16T04:00:49.560Z,1025.51
2017-05-16T04:01:50.203Z,1025.53
2017-05-16T04:02:50.843Z,1025.53
2017-05-16T04:03:51.483Z,1025.53
2017-05-16T04:04:52.275Z,1025.46
2017-05-16T04:05:52.916Z,1025.54
2017-05-16T04:06:53.559Z,1025.46
2017-05-16T04:07:54.199Z,1025.43
2017-05-16T04:08:54.840Z,1025.48
2017-05-16T04:09:55.481Z,1025.43
2017-05-16T04:10:56.124Z,1025.46
2017-05-16T04:11:56.807Z,1025.40
2017-05-16T04:12:57.611Z,1025.40
2017-05-16T04:13:58.262Z,1025.40
2017-05-16T04:14:58.903Z,1025.44
2017-05-16T04:15:59.545Z,1025.40
2017-05-16T04:17:00.186Z,1025.42
2017-05-16T04:18:00.828Z,1025.34
2017-05-16T04:19:01.509Z,1025.46
2017-05-16T04:20:02.117Z,1025.40
2017-05-16T04:21:02.751Z,1025.33
2017-05-16T04:22:03.542Z,1025.34
2017-05-16T04:23:04.183Z,1025.39
2017-05-16T04:24:04.823Z,1025.34
2017-05-16T04:25:05.469Z,1025.37
2017-05-16T04:26:06.107Z,1025.41
2017-05-16T04:27:06.747Z,1025.37
2017-05-16T04:28:07.391Z,1025.38
2017-05-16T04:29:08.033Z,1025.32
2017-05-16T04:30:08.876Z,1025.36
2017-05-16T04:31:09.516Z,1025.34
2017-05-16T04:32:10.156Z,1025.37
2017-05-16T04:33:10.799Z,1025.40
2017-05-16T04:34:11.442Z,1025.37
2017-05-16T04:35:12.077Z,1025.29
2017-05-16T04:36:12.714Z,1025.41
2017-05-16T04:37:13.354Z,1025.38
2017-05-16T04:38:14.292Z,1025.36
2017-05-16T04:39:14.934Z,1025.35
2017-05-16T04:40:15.575Z,1025.41
2017-05-16T04:41:16.216Z,1025.43
2017-05-16T04:42:16.851Z,1025.44
2017-05-16T04:43:17.495Z,1025.41
2017-05-16T04:44:18.136Z,1025.43
2017-05-16T04:45:18.773Z,1025.43
2017-05-16T04:46:19.558Z,1025.39
2017-05-16T04:47:20.201Z,1025.29
2017-05-16T04:48:20.842Z,1025.41
2017-05-16T04:49:21.485Z,1025.34
2017-05-16T04:50:22.127Z,1025.31
2017-05-16T04:51:22.768Z,1025.31
2017-05-16T04:52:23.405Z,1025.35
2017-05-16T04:53:24.050Z,1025.30
2017-05-16T04:54:24.891Z,1025.31
2017-05-16T04:55:25.531Z,1025.32
2017-05-16T04:56:26.173Z,1025.18
2017-05-16T04:57:26.813Z,1025.28
2017-05-16T04:58:27.458Z,1025.29
2017-05-16T04:59:28.101Z,1025.28
2017-05-16T05:00:28.740Z,1025.27
2017-05-16T05:01:29.383Z,1025.22
2017-05-16T05:02:30.024Z,1025.26
2017-05-16T05:03:30.814Z,1025.16
2017-05-16T05:04:31.457Z,1025.12
2017-05-16T05:05:32.091Z,1025.16
2017-05-16T05:06:32.733Z,1025.19
2017-05-16T05:07:33.377Z,1025.12
2017-05-16T05:08:34.018Z,1025.14
2017-05-16T05:09:34.656Z,1025.14
2017-05-16T05:10:35.298Z,1025.15
2017-05-16T05:11:36.255Z,1025.28
2017-05-16T05:12:36.928Z,1025.24
2017-05-16T05:13:37.722Z,1025.28
2017-05-16T05:14:38.356Z,1025.37
2017-05-16T05:15:38.998Z,1025.30
2017-05-16T05:16:39.640Z,1025.37
2017-05-16T05:17:40.281Z,1025.38
2017-05-16T05:18:40.917Z,1025.38
2017-05-16T05:19:41.759Z,1025.34
2017-05-16T05:20:42.401Z,1025.39
2017-05-16T05:21:43.044Z,1025.34
2017-05-16T05:22:43.679Z,1025.37
2017-05-16T05:23:44.319Z,1025.37
2017-05-16T05:24:44.959Z,1025.35
2017-05-16T05:25:45.601Z,1025.34
2017-05-16T05:26:46.240Z,1025.34
2017-05-16T05:27:47.082Z,1025.39
2017-05-16T05:28:47.720Z,1025.45
2017-05-16T05:29:48.359Z,1025.53
2017-05-16T05:30:49.000Z,1025.56
2017-05-16T05:31:49.642Z,1025.61
2017-05-16T05:32:50.284Z,1025.52
2017-05-16T05:33:50.926Z,1025.48
2017-05-16T05:34:51.566Z,1025.55
2017-05-16T05:35:52.207Z,1025.59
2017-05-16T05:36:53.150Z,1025.52
2017-05-16T05:37:53.789Z,1025.59
2017-05-16T05:38:54.431Z,1025.52
2017-05-16T05:39:55.073Z,1025.50
2017-05-16T05:40:55.709Z,1025.56
2017-05-16T05:41:56.350Z,1025.51
2017-05-16T05:42:56.991Z,1025.57
2017-05-16T05:43:57.632Z,1025.51
2017-05-16T05:44:58.419Z,1025.62
2017-05-16T05:45:59.060Z,1025.59
2017-05-16T05:46:59.701Z,1025.64
2017-05-16T05:48:00.343Z,1025.64
2017-05-16T05:49:00.986Z,1025.65
2017-05-16T05:50:01.631Z,1025.68
2017-05-16T05:51:02.271Z,1025.74
2017-05-16T05:52:02.911Z,1025.71
2017-05-16T05:53:03.805Z,1025.81
2017-05-16T05:54:04.446Z,1025.76
2017-05-16T05:55:05.089Z,1025.77
2017-05-16T05:56:05.731Z,1025.75
2017-05-16T05:57:06.373Z,1025.84
2017-05-16T05:58:07.012Z,1025.76
2017-05-16T05:59:07.654Z,1025.80
2017-05-16T06:00:08.297Z,1025.71
2017-05-16T06:01:09.287Z,1025.74
2017-05-16T06:02:09.928Z,1025.76
2017-05-16T06:03:10.569Z,1025.85
2017-05-16T06:04:11.210Z,1025.70
2017-05-16T06:05:11.856Z,1025.71
2017-05-16T06:06:12.494Z,1025.79
2017-05-16T06:07:13.135Z,1025.75
2017-05-16T06:08:13.773Z,1025.72
2017-05-16T06:09:14.614Z,1025.72
2017-05-16T06:10:15.256Z,1025.74
2017-05-16T06:11:15.895Z,1025.69
2017-05-16T06:12:16.537Z,1025.83
2017-05-16T06:13:17.177Z,1025.83
2017-05-16T06:14:17.819Z,1025.75
2017-05-16T06:15:18.462Z,1025.77
2017-05-16T06:16:19.104Z,1025.83
2017-05-16T06:17:19.747Z,1025.86
2017-05-16T06:18:20.587Z,1025.78
2017-05-16T06:19:21.223Z,1025.89
2017-05-16T06:20:21.866Z,1025.88
2017-05-16T06:21:22.504Z,1025.92
2017-05-16T06:22:23.147Z,1025.87
2017-05-16T06:23:23.789Z,1025.90
2017-05-16T06:24:24.428Z,1025.93
2017-05-16T06:25:25.070Z,1025.99
2017-05-16T06:26:25.907Z,1025.94
2017-05-16T06:27:26.551Z,1025.95
2017-05-16T06:28:27.192Z,1025.92
2017-05-16T06:29:27.832Z,1025.96
2017-05-16T06:30:28.470Z,1026.04
2017-05-16T06:31:29.112Z,1026.05
2017-05-16T06:32:29.749Z,1026.07
2017-05-16T06:33:30.390Z,1026.11
2017-05-16T06:34:31.228Z,1026.11
2017-05-16T06:35:31.868Z,1026.15
2017-05-16T06:36:32.509Z,1026.13
2017-05-16T06:37:33.150Z,1026.18
2017-05-16T06:38:33.790Z,1026.12
2017-05-16T06:39:34.435Z,1026.14
2017-05-16T06:40:35.072Z,1026.14
2017-05-16T06:41:35.707Z,1026.19
2017-05-16T06:42:36.549Z,1026.15
2017-05-16T06:43:37.193Z,1026.15
2017-05-16T06:44:37.834Z,1026.21
2017-05-16T06:45:38.475Z,1026.15
2017-05-16T06:46:39.115Z,1026.21
2017-05-16T06:47:39.756Z,1026.18
2017-05-16T06:48:40.397Z,1026.18
2017-05-16T06:49:41.033Z,1026.25
2017-05-16T06:50:41.676Z,1026.25
2017-05-16T06:51:42.516Z,1026.21
2017-05-16T06:52:43.160Z,1026.25
2017-05-16T06:53:43.800Z,1026.25
2017-05-16T06:54:44.442Z,1026.23
2017-05-16T06:55:45.087Z,1026.11
2017-05-16T06:56:45.723Z,1026.20
2017-05-16T06:57:46.357Z,1026.17
2017-05-16T06:58:46.995Z,1026.12
2017-05-16T06:59:47.935Z,1026.10
2017-05-16T07:00:48.578Z,1026.14
2017-05-16T07:01:49.217Z,1026.13
2017-05-16T07:02:49.861Z,1026.09
2017-05-16T07:03:50.501Z,1026.09
2017-05-16T07:04:51.139Z,1026.09
2017-05-16T07:05:52.101Z,1026.19
2017-05-16T07:06:52.692Z,1026.12
2017-05-16T07:07:53.533Z,1026.21
2017-05-16T07:08:54.173Z,1026.19
2017-05-16T07:09:54.814Z,1026.30
2017-05-16T07:10:55.455Z,1026.24
2017-05-16T07:11:56.096Z,1026.24
2017-05-16T07:12:56.741Z,1026.24
2017-05-16T07:13:57.379Z,1026.24
2017-05-16T07:14:58.335Z,1026.32
2017-05-16T07:15:59.176Z,1026.19
2017-05-16T07:16:59.823Z,1026.33
2017-05-16T07:18:00.453Z,1026.29
2017-05-16T07:19:01.092Z,1026.26
2017-05-16T07:20:01.735Z,1026.33
2017-05-16T07:21:02.376Z,1026.27
2017-05-16T07:22:03.073Z,1026.27
2017-05-16T07:23:03.823Z,1026.34
2017-05-16T07:24:04.660Z,1026.36
2017-05-16T07:25:05.301Z,1026.32
2017-05-16T07:26:05.944Z,1026.35
2017-05-16T07:27:06.584Z,1026.36
2017-05-16T07:28:07.227Z,1026.36
2017-05-16T07:29:07.868Z,1026.36
2017-05-16T07:30:08.512Z,1026.28
2017-05-16T07:31:09.146Z,1026.36
2017-05-16T07:32:09.789Z,1026.38
2017-05-16T07:33:10.779Z,1026.36
2017-05-16T07:34:11.420Z,1026.40
2017-05-16T07:35:12.061Z,1026.32
2017-05-16T07:36:12.703Z,1026.29
2017-05-16T07:37:13.347Z,1026.34
2017-05-16T07:38:13.987Z,1026.34
2017-05-16T07:39:14.628Z,1026.32
2017-05-16T07:40:15.269Z,1026.39
2017-05-16T07:41:16.112Z,1026.41
2017-05-16T07:42:16.757Z,1026.34
2017-05-16T07:43:17.393Z,1026.32
2017-05-16T07:44:18.038Z,1026.36
2017-05-16T07:45:18.672Z,1026.30
2017-05-16T07:46:19.310Z,1026.24
2017-05-16T07:47:19.951Z,1026.33
2017-05-16T07:48:20.595Z,1026.26
2017-05-16T07:49:21.386Z,1026.36
2017-05-16T07:50:22.028Z,1026.28
2017-05-16T07:51:22.670Z,1026.29
2017-05-16T07:52:23.315Z,1026.27
2017-05-16T07:53:23.956Z,1026.25
2017-05-16T07:54:24.592Z,1026.25
2017-05-16T07:55:25.234Z,1026.30
2017-05-16T07:56:25.874Z,1026.26
2017-05-16T07:57:26.715Z,1026.30
2017-05-16T07:58:27.357Z,1026.31
2017-05-16T07:59:28.000Z,1026.25
2017-05-16T08:00:28.642Z,1026.27
2017-05-16T08:01:29.281Z,1026.30
2017-05-16T08:02:29.925Z,1026.30
2017-05-16T08:03:30.564Z,1026.29
2017-05-16T08:04:31.204Z,1026.32
2017-05-16T08:05:31.839Z,1026.40
2017-05-16T08:06:32.681Z,1026.33
2017-05-16T08:07:33.318Z,1026.25
2017-05-16T08:08:33.958Z,1026.34
2017-05-16T08:09:34.600Z,1026.31
2017-05-16T08:10:35.242Z,1026.33
2017-05-16T08:11:35.878Z,1026.30
2017-05-16T08:12:36.521Z,1026.24
2017-05-16T08:13:37.157Z,1026.33
2017-05-16T08:14:37.998Z,1026.30
2017-05-16T08:15:38.643Z,1026.23
2017-05-16T08:16:39.288Z,1026.21
2017-05-16T08:17:39.926Z,1026.26
2017-05-16T08:18:40.570Z,1026.26
2017-05-16T08:19:41.208Z,1026.34
2017-05-16T08:20:41.852Z,1026.32
2017-05-16T08:21:42.490Z,1026.36
2017-05-16T08:22:43.280Z,1026.28
2017-05-16T08:23:43.921Z,1026.30
2017-05-16T08:24:44.562Z,1026.28
2017-05-16T08:25:45.204Z,1026.35
2017-05-16T08:26:45.846Z,1026.33
2017-05-16T08:27:46.489Z,1026.31
2017-05-16T08:28:47.127Z,1026.23
2017-05-16T08:29:47.770Z,1026.23
2017-05-16T08:30:48.605Z,1026.22
2017-05-16T08:31:49.246Z,1026.29
2017-05-16T08:32:49.886Z,1026.30
2017-05-16T08:33:50.529Z,1026.23
2017-05-16T08:34:51.163Z,1026.26
2017-05-16T08:35:51.806Z,1026.23
2017-05-16T08:36:52.445Z,1026.27
2017-05-16T08:37:53.079Z,1026.26
2017-05-16T08:38:53.874Z,1026.22
2017-05-16T08:39:54.513Z,1026.15
2017-05-16T08:40:55.154Z,1026.22
2017-05-16T08:41:55.790Z,1026.26
2017-05-16T08:42:56.430Z,1026.27
2017-05-16T08:43:57.075Z,1026.24
2017-05-16T08:44:57.718Z,1026.37
2017-05-16T08:45:58.360Z,1026.20
2017-05-16T08:46:59.002Z,1026.21
2017-05-16T08:47:59.841Z,1026.19
2017-05-16T08:49:00.482Z,1026.24
2017-05-16T08:50:01.125Z,1026.29
2017-05-16T08:51:01.761Z,1026.30
2017-05-16T08:52:02.402Z,1026.28
2017-05-16T08:53:03.043Z,1026.30
2017-05-16T08:54:03.684Z,1026.39
2017-05-16T08:55:04.329Z,1026.28
2017-05-16T08:56:05.119Z,1026.39
2017-05-16T08:57:05.764Z,1026.39
2017-05-16T08:58:06.403Z,1026.43
2017-05-16T08:59:07.046Z,1026.39
2017-05-16T09:00:07.692Z,1026.49
2017-05-16T09:01:08.336Z,1026.43
2017-05-16T09:02:08.975Z,1026.44
2017-05-16T09:03:09.616Z,1026.48
2017-05-16T09:04:10.461Z,1026.37
2017-05-16T09:05:11.106Z,1026.45
2017-05-16T09:06:11.749Z,1026.45
2017-05-16T09:07:12.386Z,1026.43
2017-05-16T09:08:13.028Z,1026.35
2017-05-16T09:09:13.664Z,1026.44
2017-05-16T09:10:14.306Z,1026.37
2017-05-16T09:11:14.952Z,1026.41
2017-05-16T09:12:15.798Z,1026.44
2017-05-16T09:13:16.439Z,1026.39
2017-05-16T09:14:17.083Z,1026.38
2017-05-16T09:15:17.724Z,1026.36
2017-05-16T09:16:18.365Z,1026.39
2017-05-16T09:17:19.010Z,1026.35
2017-05-16T09:18:19.652Z,1026.39
2017-05-16T09:19:20.296Z,1026.36
2017-05-16T09:20:20.942Z,1026.35
2017-05-16T09:21:21.733Z,1026.27
2017-05-16T09:22:22.372Z,1026.24
2017-05-16T09:23:23.015Z,1026.35
2017-05-16T09:24:23.658Z,1026.26
2017-05-16T09:25:24.302Z,1026.27
2017-05-16T09:26:24.941Z,1026.26
2017-05-16T09:27:25.583Z,1026.24
2017-05-16T09:28:26.220Z,1026.23
2017-05-16T09:29:27.059Z,1026.27
2017-05-16T09:30:27.701Z,1026.14
2017-05-16T09:31:28.338Z,1026.18
2017-05-16T09:32:28.982Z,1026.12
2017-05-16T09:33:29.625Z,1026.10
2017-05-16T09:34:30.269Z,1026.13
2017-05-16T09:35:30.919Z,1026.10
2017-05-16T09:36:31.549Z,1026.14
2017-05-16T09:37:32.342Z,1026.17
2017-05-16T09:38:32.986Z,1026.13
2017-05-16T09:39:33.627Z,1026.17
2017-05-16T09:40:34.270Z,1026.20
2017-05-16T09:41:34.911Z,1026.21
2017-05-16T09:42:35.559Z,1026.16
2017-05-16T09:43:36.192Z,1026.07
2017-05-16T09:44:36.835Z,1026.05
2017-05-16T09:45:38.131Z,1026.08
2017-05-16T09:46:38.776Z,1026.03
2017-05-16T09:47:39.414Z,1026.05
2017-05-16T09:48:40.052Z,1026.02
2017-05-16T09:49:40.690Z,1026.02
2017-05-16T09:50:41.330Z,1026.00
2017-05-16T09:51:41.973Z,1025.94
2017-05-16T09:52:42.619Z,1025.93
2017-05-16T09:53:43.408Z,1025.81
2017-05-16T09:54:44.044Z,1025.87
2017-05-16T09:55:44.684Z,1025.91
2017-05-16T09:56:45.325Z,1025.77
2017-05-16T09:57:45.963Z,1025.90
2017-05-16T09:58:46.605Z,1025.87
2017-05-16T09:59:47.242Z,1025.83
2017-05-16T10:00:47.836Z,1025.78
2017-05-16T10:01:48.480Z,1025.85
2017-05-16T10:02:49.423Z,1025.81
2017-05-16T10:03:50.064Z,1025.84
2017-05-16T10:04:50.704Z,1025.86
2017-05-16T10:05:51.345Z,1025.85
2017-05-16T10:06:51.990Z,1025.85
2017-05-16T10:07:52.635Z,1025.79
2017-05-16T10:08:53.278Z,1025.82
2017-05-16T10:09:53.922Z,1025.83
2017-05-16T10:10:54.761Z,1025.87
2017-05-16T10:11:55.398Z,1025.83
2017-05-16T10:12:56.036Z,1025.82
2017-05-16T10:13:56.678Z,1025.86
2017-05-16T10:14:57.320Z,1025.81
2017-05-16T10:15:57.960Z,1025.82
2017-05-16T10:16:58.600Z,1025.89
2017-05-16T10:17:59.245Z,1025.88
2017-05-16T10:19:00.041Z,1025.85
2017-05-16T10:20:00.684Z,1025.80
2017-05-16T10:21:01.330Z,1025.87
2017-05-16T10:22:01.970Z,1025.90
2017-05-16T10:23:02.611Z,1025.80
2017-05-16T10:24:03.256Z,1025.86
2017-05-16T10:25:03.902Z,1025.88
2017-05-16T10:26:04.544Z,1025.87
2017-05-16T10:27:05.383Z,1025.88
2017-05-16T10:28:06.025Z,1025.89
2017-05-16T10:29:06.669Z,1025.79
2017-05-16T10:30:07.309Z,1025.79
2017-05-16T10:31:07.952Z,1025.85
2017-05-16T10:32:08.596Z,1025.80
2017-05-16T10:33:09.233Z,1025.74
2017-05-16T10:34:09.870Z,1025.77
2017-05-16T10:35:10.515Z,1025.78
2017-05-16T10:36:11.158Z,1025.77
2017-05-16T10:37:11.804Z,1025.60
2017-05-16T10:38:12.456Z,1025.68
2017-05-16T10:39:13.091Z,1025.74
2017-05-16T10:40:13.732Z,1025.64
2017-05-16T10:41:14.371Z,1025.60
2017-05-16T10:42:15.014Z,1025.66
2017-05-16T10:43:15.656Z,1025.66
2017-05-16T10:44:16.500Z,1025.62
2017-05-16T10:45:17.144Z,1025.67
2017-05-16T10:46:17.786Z,1025.59
2017-05-16T10:47:18.429Z,1025.60
2017-05-16T10:48:19.069Z,1025.51
2017-05-16T10:49:19.706Z,1025.53
2017-05-16T10:50:20.344Z,1025.49
2017-05-16T10:51:20.985Z,1025.47
2017-05-16T10:52:21.876Z,1025.50
2017-05-16T10:53:22.576Z,1025.49
2017-05-16T10:54:23.218Z,1025.46
2017-05-16T10:55:23.866Z,1025.38
2017-05-16T10:56:24.508Z,1025.44
2017-05-16T10:57:25.147Z,1025.36
2017-05-16T10:58:25.789Z,1025.36
2017-05-16T10:59:26.481Z,1025.35
2017-05-16T11:00:27.425Z,1025.23
2017-05-16T11:01:28.060Z,1025.29
2017-05-16T11:02:28.703Z,1025.18
2017-05-16T11:03:29.347Z,1025.19
2017-05-16T11:04:29.990Z,1025.18
2017-05-16T11:05:30.633Z,1025.17
2017-05-16T11:06:31.271Z,1025.14
2017-05-16T11:07:31.915Z,1025.17
2017-05-16T11:08:32.756Z,1025.22
2017-05-16T11:09:33.396Z,1025.19
2017-05-16T11:10:34.039Z,1025.15
2017-05-16T11:11:34.686Z,1025.16
2017-05-16T11:12:35.645Z,1025.18
2017-05-16T11:13:36.290Z,1025.18
2017-05-16T11:14:36.935Z,1025.16
2017-05-16T11:15:37.579Z,1025.21
2017-05-16T11:16:38.223Z,1025.21
2017-05-16T11:17:39.016Z,1025.07
2017-05-16T11:18:39.660Z,1025.10
2017-05-16T11:19:40.301Z,1025.17
2017-05-16T11:20:40.942Z,1025.08
2017-05-16T11:21:41.585Z,1025.10
2017-05-16T11:22:42.227Z,1025.06
2017-05-16T11:23:42.872Z,1025.18
2017-05-16T11:24:43.515Z,1025.08
2017-05-16T11:25:44.355Z,1025.12
2017-05-16T11:26:44.996Z,1025.08
2017-05-16T11:27:45.632Z,1025.03
2017-05-16T11:28:46.276Z,1025.08
2017-05-16T11:29:46.917Z,1025.03
2017-05-16T11:30:47.565Z,1025.10
2017-05-16T11:31:48.207Z,1025.07
2017-05-16T11:32:48.845Z,1025.03
2017-05-16T11:33:49.732Z,1025.04
2017-05-16T11:34:50.373Z,1025.11
2017-05-16T11:35:51.015Z,1025.05
2017-05-16T11:36:51.662Z,1025.13
2017-05-16T11:37:52.302Z,1025.16
2017-05-16T11:38:52.947Z,1025.13
2017-05-16T11:39:53.587Z,1025.19
2017-05-16T11:40:54.231Z,1025.07
2017-05-16T11:41:55.023Z,1025.14
2017-05-16T11:42:55.662Z,1025.08
2017-05-16T11:43:56.306Z,1025.17
2017-05-16T11:44:56.943Z,1025.01
2017-05-16T11:45:57.582Z,1025.07
2017-05-16T11:46:58.227Z,1025.10
2017-05-16T11:47:58.871Z,1025.09
2017-05-16T11:48:59.514Z,1025.13
2017-05-16T11:50:00.156Z,1025.10
2017-05-16T11:51:01.099Z,1025.14
2017-05-16T11:52:02.061Z,1025.19
2017-05-16T11:53:02.698Z,1025.09
2017-05-16T11:54:03.341Z,1025.11
2017-05-16T11:55:03.983Z,1025.03
2017-05-16T11:56:04.626Z,1025.02
2017-05-16T11:57:05.266Z,1025.09
2017-05-16T11:58:05.903Z,1025.05
2017-05-16T11:59:06.695Z,1025.12
2017-05-16T12:00:07.341Z,1025.03
2017-05-16T12:01:07.980Z,1025.12
2017-05-16T12:02:08.621Z,1024.99
2017-05-16T12:03:09.262Z,1025.06
2017-05-16T12:04:09.902Z,1025.08
2017-05-16T12:05:10.548Z,1025.01
2017-05-16T12:06:11.191Z,1024.99
2017-05-16T12:07:12.235Z,1025.00
2017-05-16T12:08:12.878Z,1025.02
2017-05-16T12:09:13.520Z,1024.92
2017-05-16T12:10:14.169Z,1024.87
2017-05-16T12:11:14.802Z,1024.94
2017-05-16T12:12:15.442Z,1024.91
2017-05-16T12:13:16.084Z,1024.99